Startpagina
METAR-TAF:

METAR-TAF

Vliegvelden :

Luchthaven Belgrado Nikola Tesla

Belgrado, Servië

breedte: 44-49N, lengte: 020-17E, hoogte: 96 m

Actueel weer

Dit bericht is 40 minuten geleden gemaakt, om 04:30 UTC
Wind 4 kt uit het oostzuidoosten
Temperatuur 16°C
Vochtigheid 77%
Druk 1020 hPa
Zicht 10 km of meer
geen wolken onder 1500 m en geen cumulonimbus

METAR: LYBE 190430Z 12004KT CAVOK 16/12 Q1020 NOSIG

Tijdstip: 07:10 (05:10 UTC)

Verwachting

Dit bericht is 6 uur en het 10 minuten geleden gemaakt, om 23:00 UTC
Verwachting geldig van 19 om 00 UTC tot 19 om 24 UTC
Wind 9 kt uit het zuidoosten
Zicht 10 km of meer
geen wolken onder 1500 m en geen cumulonimbus

TAF: LYBE 182300Z 1900/1924 13009KT CAVOK TX29/1913Z TN16/1904Z

Waarnemingen en weersverwachtingen van meer dan 4000 vliegvelden (METAR en TAF).

De beschikbare stations zijn de gele en rode punten op de kaart.

Ga met uw muis naar het station om de naam te zien.

Klik dan om waarnemingen en weersverwachtingen te zien.

kaart wijzigen: klik op de groene knoppen met een zwart kruis om in te zoomen, op de groene knop met een streepje om uit te zoomen of op de groene pijlen voor aangrenzende kaarten.


METAR-TAF: